createdAt,value
2023-04-08T00:00:42.996Z,4.356
2023-04-08T00:01:43.206Z,4.428
2023-04-08T00:02:42.775Z,4.332
2023-04-08T00:03:43.091Z,4.337
2023-04-08T00:05:42.883Z,4.268
2023-04-08T00:06:43.031Z,4.211
2023-04-08T00:07:42.145Z,4.201
2023-04-08T00:08:42.331Z,4.241
2023-04-08T00:09:42.696Z,4.270
2023-04-08T00:10:42.252Z,4.292
2023-04-08T00:11:42.478Z,4.249
2023-04-08T00:12:42.707Z,4.268
2023-04-08T00:13:42.868Z,4.313
2023-04-08T00:14:43.076Z,4.273
2023-04-08T00:15:42.372Z,4.265
2023-04-08T00:16:42.780Z,4.246
2023-04-08T00:17:42.357Z,4.284
2023-04-08T00:18:43.013Z,4.187
2023-04-08T00:19:42.132Z,4.177
2023-04-08T00:20:42.354Z,4.147
2023-04-08T00:21:42.544Z,4.166
2023-04-08T00:22:42.672Z,4.209
2023-04-08T00:23:42.843Z,4.134
2023-04-08T00:24:43.018Z,4.129
2023-04-08T00:25:42.220Z,4.075
2023-04-08T00:26:42.367Z,3.971
2023-04-08T00:27:42.568Z,3.977
2023-04-08T00:28:42.679Z,3.990
2023-04-08T00:29:42.847Z,3.993
2023-04-08T00:30:43.036Z,4.062
2023-04-08T00:32:42.711Z,3.894
2023-04-08T00:35:42.731Z,4.019
2023-04-08T00:37:42.419Z,3.968
2023-04-08T00:38:42.871Z,4.038
2023-04-08T00:39:43.040Z,3.990
2023-04-08T00:40:42.252Z,3.944
2023-04-08T00:41:42.371Z,4.038
2023-04-08T00:42:42.532Z,4.065
2023-04-08T00:43:42.719Z,4.107
2023-04-08T00:44:43.032Z,4.017
2023-04-08T00:45:42.212Z,3.894
2023-04-08T00:46:42.487Z,3.960
2023-04-08T00:47:42.952Z,3.896
2023-04-08T00:48:42.331Z,3.867
2023-04-08T00:49:42.481Z,3.790
2023-04-08T00:50:42.620Z,3.715
2023-04-08T00:51:42.804Z,3.704
2023-04-08T00:52:42.939Z,3.621
2023-04-08T00:53:43.303Z,3.619
2023-04-08T00:54:42.432Z,3.611
2023-04-08T00:55:42.639Z,3.651
2023-04-08T00:56:42.760Z,3.728
2023-04-08T00:57:42.927Z,3.680
2023-04-08T00:59:42.248Z,3.589
2023-04-08T01:00:42.495Z,3.587
2023-04-08T01:01:42.719Z,3.600
2023-04-08T01:02:43.141Z,3.600
2023-04-08T01:03:43.243Z,3.563
2023-04-08T01:04:42.908Z,3.472
2023-04-08T01:05:43.076Z,3.461
2023-04-08T01:07:42.309Z,3.555
2023-04-08T01:08:42.489Z,3.579
2023-04-08T01:09:42.664Z,3.624
2023-04-08T01:10:42.880Z,3.629
2023-04-08T01:12:42.337Z,3.515
2023-04-08T01:13:42.543Z,3.624
2023-04-08T01:14:42.661Z,3.637
2023-04-08T01:15:42.940Z,3.613
2023-04-08T01:17:42.685Z,3.589
2023-04-08T01:18:43.075Z,3.477
2023-04-08T01:19:42.199Z,3.579
2023-04-08T01:20:42.399Z,3.603
2023-04-08T01:21:42.504Z,3.579
2023-04-08T01:22:42.715Z,3.600
2023-04-08T01:23:43.090Z,3.627
2023-04-08T01:24:42.291Z,3.563
2023-04-08T01:25:42.528Z,3.563
2023-04-08T01:26:42.677Z,3.549
2023-04-08T01:27:42.939Z,3.549
2023-04-08T01:28:43.099Z,3.579
2023-04-08T01:29:42.241Z,3.581
2023-04-08T01:30:42.356Z,3.560
2023-04-08T01:31:42.846Z,3.581
2023-04-08T01:32:42.206Z,3.579
2023-04-08T01:33:42.766Z,3.576
2023-04-08T01:34:42.927Z,3.568
2023-04-08T01:35:43.200Z,3.565
2023-04-08T01:37:43.099Z,3.525
2023-04-08T01:40:42.659Z,3.517
2023-04-08T01:41:42.860Z,3.589
2023-04-08T01:42:43.075Z,3.579
2023-04-08T01:43:42.227Z,3.563
2023-04-08T01:44:42.372Z,3.499
2023-04-08T01:45:42.588Z,3.488
2023-04-08T01:48:42.208Z,3.600
2023-04-08T01:49:42.351Z,3.613
2023-04-08T01:50:42.486Z,3.603
2023-04-08T01:51:42.606Z,3.667
2023-04-08T01:52:42.863Z,3.627
2023-04-08T01:53:43.010Z,3.629
2023-04-08T01:54:42.103Z,3.659
2023-04-08T01:55:42.192Z,3.667
2023-04-08T01:56:42.360Z,3.691
2023-04-08T01:57:42.941Z,3.659
2023-04-08T01:58:42.406Z,3.728
2023-04-08T01:59:42.523Z,3.734
2023-04-08T02:00:42.749Z,3.731
2023-04-08T02:01:43.045Z,3.717
2023-04-08T02:03:43.334Z,3.766
2023-04-08T02:04:43.199Z,3.701
2023-04-08T02:08:42.318Z,3.739
2023-04-08T02:09:42.472Z,3.768
2023-04-08T02:10:42.585Z,3.752
2023-04-08T02:11:42.740Z,3.790
2023-04-08T02:12:42.972Z,3.750
2023-04-08T02:13:42.128Z,3.758
2023-04-08T02:14:42.279Z,3.819
2023-04-08T02:15:42.702Z,3.758
2023-04-08T02:16:43.200Z,3.744
2023-04-08T02:17:42.573Z,3.803
2023-04-08T02:18:42.860Z,3.776
2023-04-08T02:19:43.031Z,3.824
2023-04-08T02:20:42.263Z,3.827
2023-04-08T02:21:42.415Z,3.814
2023-04-08T02:22:42.568Z,3.814
2023-04-08T02:23:42.708Z,3.782
2023-04-08T02:24:42.357Z,3.819
2023-04-08T02:25:42.559Z,3.776
2023-04-08T02:26:42.688Z,3.768
2023-04-08T02:27:42.866Z,3.758
2023-04-08T02:28:43.191Z,3.766
2023-04-08T02:29:42.314Z,3.768
2023-04-08T02:30:42.570Z,3.758
2023-04-08T02:31:42.862Z,3.667
2023-04-08T02:32:42.467Z,3.728
2023-04-08T02:33:42.903Z,3.795
2023-04-08T02:34:42.188Z,3.787
2023-04-08T02:35:42.535Z,3.790
2023-04-08T02:36:43.008Z,3.739
2023-04-08T02:37:42.157Z,3.766
2023-04-08T02:38:42.219Z,3.728
2023-04-08T02:39:42.368Z,3.766
2023-04-08T02:40:42.624Z,3.779
2023-04-08T02:41:42.775Z,3.728
2023-04-08T02:42:43.040Z,3.771
2023-04-08T02:43:42.245Z,3.755
2023-04-08T02:44:42.473Z,3.766
2023-04-08T02:45:42.795Z,3.814
2023-04-08T02:46:42.250Z,3.816
2023-04-08T02:47:42.523Z,3.859
2023-04-08T02:48:43.001Z,3.787
2023-04-08T02:49:42.190Z,3.843
2023-04-08T02:50:42.377Z,3.816
2023-04-08T02:51:42.639Z,3.816
2023-04-08T02:52:42.758Z,3.814
2023-04-08T02:53:42.911Z,3.795
2023-04-08T02:54:43.083Z,3.744
2023-04-08T02:55:42.247Z,3.779
2023-04-08T02:56:42.356Z,3.782
2023-04-08T02:57:42.606Z,3.803
2023-04-08T02:58:42.821Z,3.819
2023-04-08T02:59:42.959Z,3.846
2023-04-08T03:00:42.317Z,3.864
2023-04-08T03:01:42.645Z,3.867
2023-04-08T03:02:42.975Z,3.798
2023-04-08T03:04:42.717Z,3.824
2023-04-08T03:05:42.885Z,3.840
2023-04-08T03:06:43.073Z,3.880
2023-04-08T03:07:42.367Z,3.918
2023-04-08T03:08:42.596Z,3.920
2023-04-08T03:09:42.736Z,3.944
2023-04-08T03:10:42.895Z,3.950
2023-04-08T03:11:42.169Z,3.907
2023-04-08T03:12:42.582Z,3.915
2023-04-08T03:13:42.705Z,3.918
2023-04-08T03:14:42.867Z,3.894
2023-04-08T03:15:43.124Z,3.907
2023-04-08T03:17:43.068Z,3.878
2023-04-08T03:18:42.451Z,3.862
2023-04-08T03:19:42.614Z,3.856
2023-04-08T03:20:42.899Z,3.859
2023-04-08T03:21:43.131Z,3.862
2023-04-08T03:22:42.327Z,3.856
2023-04-08T03:23:42.464Z,3.808
2023-04-08T03:24:42.621Z,3.739
2023-04-08T03:25:42.852Z,3.750
2023-04-08T03:26:43.051Z,3.758
2023-04-08T03:27:42.204Z,3.747
2023-04-08T03:28:43.095Z,3.776
2023-04-08T03:31:43.120Z,3.704
2023-04-08T03:32:42.460Z,3.739
2023-04-08T03:33:42.816Z,3.779
2023-04-08T03:34:42.922Z,3.766
2023-04-08T03:35:42.202Z,3.779
2023-04-08T03:36:42.588Z,3.766
2023-04-08T03:37:42.816Z,3.803
2023-04-08T03:38:43.040Z,3.723
2023-04-08T03:39:42.241Z,3.723
2023-04-08T03:40:42.368Z,3.731
2023-04-08T03:41:42.604Z,3.717
2023-04-08T03:42:42.822Z,3.675
2023-04-08T03:43:42.978Z,3.691
2023-04-08T03:44:43.186Z,3.680
2023-04-08T03:45:42.412Z,3.701
2023-04-08T03:46:43.120Z,3.704
2023-04-08T03:48:42.796Z,3.664
2023-04-08T03:49:43.011Z,3.672
2023-04-08T03:50:42.203Z,3.693
2023-04-08T03:51:42.361Z,3.677
2023-04-08T03:52:42.604Z,3.643
2023-04-08T03:53:42.771Z,3.656
2023-04-08T03:54:42.927Z,3.680
2023-04-08T03:55:43.103Z,3.693
2023-04-08T03:56:42.200Z,3.685
2023-04-08T03:57:42.420Z,3.707
2023-04-08T03:58:42.566Z,3.728
2023-04-08T03:59:42.932Z,3.755
2023-04-08T04:01:42.282Z,3.771
2023-04-08T04:02:42.916Z,3.755
2023-04-08T04:03:42.574Z,3.776
2023-04-08T04:04:43.252Z,3.808
2023-04-08T04:06:42.129Z,3.779
2023-04-08T04:07:42.332Z,3.784
2023-04-08T04:08:42.734Z,3.776
2023-04-08T04:09:42.861Z,3.784
2023-04-08T04:10:42.363Z,3.758
2023-04-08T04:11:42.508Z,3.774
2023-04-08T04:12:42.631Z,3.771
2023-04-08T04:13:42.774Z,3.768
2023-04-08T04:14:42.961Z,3.723
2023-04-08T04:15:42.130Z,3.779
2023-04-08T04:16:42.655Z,3.808
2023-04-08T04:17:42.918Z,3.787
2023-04-08T04:18:42.213Z,3.830
2023-04-08T04:19:42.908Z,3.851
2023-04-08T04:20:43.125Z,3.838
2023-04-08T04:21:42.312Z,3.830
2023-04-08T04:22:42.475Z,3.830
2023-04-08T04:23:42.645Z,3.835
2023-04-08T04:24:42.749Z,3.835
2023-04-08T04:25:43.104Z,3.883
2023-04-08T04:26:42.258Z,3.891
2023-04-08T04:27:42.406Z,3.870
2023-04-08T04:28:42.574Z,3.926
2023-04-08T04:29:42.897Z,3.928
2023-04-08T04:30:42.996Z,3.912
2023-04-08T04:31:42.333Z,3.934
2023-04-08T04:32:42.877Z,3.942
2023-04-08T04:33:42.212Z,3.944
2023-04-08T04:34:42.402Z,3.958
2023-04-08T04:35:42.619Z,3.998
2023-04-08T04:37:42.418Z,3.990
2023-04-08T04:38:42.581Z,4.022
2023-04-08T04:39:42.717Z,4.022
2023-04-08T04:40:42.809Z,4.083
2023-04-08T04:42:42.288Z,4.081
2023-04-08T04:43:42.667Z,4.091
2023-04-08T04:44:42.840Z,4.107
2023-04-08T04:45:43.011Z,4.155
2023-04-08T04:47:42.582Z,4.153
2023-04-08T04:49:42.299Z,4.201
2023-04-08T04:50:42.435Z,4.238
2023-04-08T04:51:42.635Z,4.260
2023-04-08T04:52:42.983Z,4.225
2023-04-08T04:53:42.119Z,4.249
2023-04-08T04:54:42.308Z,4.262
2023-04-08T04:55:42.524Z,4.286
2023-04-08T04:56:42.964Z,4.321
2023-04-08T04:57:43.085Z,4.358
2023-04-08T04:59:42.388Z,4.374
2023-04-08T05:00:42.276Z,4.404
2023-04-08T05:01:42.533Z,4.428
2023-04-08T05:04:42.679Z,4.460
2023-04-08T05:05:42.162Z,4.481
2023-04-08T05:06:42.308Z,4.484
2023-04-08T05:07:42.471Z,4.479
2023-04-08T05:08:45.028Z,4.481
2023-04-08T05:09:42.191Z,4.484
2023-04-08T05:10:42.343Z,4.489
2023-04-08T05:11:42.463Z,4.495
2023-04-08T05:12:42.656Z,4.513
2023-04-08T05:13:42.816Z,4.489
2023-04-08T05:14:42.961Z,4.497
2023-04-08T05:15:42.179Z,4.500
2023-04-08T05:16:42.519Z,4.529
2023-04-08T05:17:43.107Z,4.524
2023-04-08T05:18:42.539Z,4.503
2023-04-08T05:19:42.719Z,4.540
2023-04-08T05:20:42.953Z,4.564
2023-04-08T05:22:42.333Z,4.551
2023-04-08T05:23:42.485Z,4.577
2023-04-08T05:24:42.677Z,4.561
2023-04-08T05:25:42.851Z,4.577
2023-04-08T05:26:43.001Z,4.591
2023-04-08T05:27:42.199Z,4.575
2023-04-08T05:28:42.348Z,4.615
2023-04-08T05:29:42.502Z,4.607
2023-04-08T05:30:42.685Z,4.601
2023-04-08T05:31:43.006Z,4.660
2023-04-08T05:32:42.270Z,4.593
2023-04-08T05:33:43.000Z,4.601
2023-04-08T05:34:43.100Z,4.604
2023-04-08T05:36:42.696Z,4.609
2023-04-08T05:37:42.860Z,4.599
2023-04-08T05:38:43.072Z,4.604
2023-04-08T05:39:43.103Z,4.636
2023-04-08T05:41:42.424Z,4.636
2023-04-08T05:42:42.635Z,4.625
2023-04-08T05:43:42.796Z,4.668
2023-04-08T05:44:42.998Z,4.609
2023-04-08T05:45:42.165Z,4.652
2023-04-08T05:46:42.438Z,4.649
2023-04-08T05:47:42.977Z,4.612
2023-04-08T05:48:42.343Z,4.609
2023-04-08T05:49:42.444Z,4.607
2023-04-08T05:50:42.589Z,4.575
2023-04-08T05:51:42.777Z,4.543
2023-04-08T05:52:43.062Z,4.524
2023-04-08T05:53:42.218Z,4.484
2023-04-08T05:54:42.380Z,4.487
2023-04-08T05:55:42.537Z,4.446
2023-04-08T05:56:42.744Z,4.428
2023-04-08T05:57:42.963Z,4.390
2023-04-08T05:58:42.173Z,4.374
2023-04-08T05:59:42.324Z,4.396
2023-04-08T06:00:42.689Z,4.425
2023-04-08T06:01:42.989Z,4.401
2023-04-08T06:03:43.222Z,4.385
2023-04-08T06:05:42.148Z,4.310
2023-04-08T06:06:42.296Z,4.308
2023-04-08T06:07:42.409Z,4.292
2023-04-08T06:08:42.571Z,4.289
2023-04-08T06:09:44.313Z,4.238
2023-04-08T06:10:42.377Z,4.249
2023-04-08T06:11:42.530Z,4.233
2023-04-08T06:12:42.759Z,4.278
2023-04-08T06:13:42.959Z,4.292
2023-04-08T06:15:42.238Z,4.238
2023-04-08T06:16:42.702Z,4.278
2023-04-08T06:18:42.472Z,4.236
2023-04-08T06:19:42.676Z,4.305
2023-04-08T06:20:43.025Z,4.276
2023-04-08T06:21:42.181Z,4.326
2023-04-08T06:22:42.306Z,4.262
2023-04-08T06:23:42.606Z,4.278
2023-04-08T06:24:42.808Z,4.332
2023-04-08T06:25:43.020Z,4.422
2023-04-08T06:26:42.201Z,4.425
2023-04-08T06:27:43.761Z,4.340
2023-04-08T06:30:42.425Z,4.361
2023-04-08T06:31:42.638Z,4.334
2023-04-08T06:33:42.933Z,4.345
2023-04-08T06:35:42.709Z,4.324
2023-04-08T06:36:42.454Z,4.268
2023-04-08T06:37:42.751Z,4.187
2023-04-08T06:38:42.972Z,4.230
2023-04-08T06:40:42.223Z,4.228
2023-04-08T06:41:42.395Z,4.177
2023-04-08T06:42:42.589Z,4.086
2023-04-08T06:43:42.762Z,4.091
2023-04-08T06:44:42.916Z,4.091
2023-04-08T06:45:42.151Z,4.091
2023-04-08T06:46:42.833Z,4.067
2023-04-08T06:47:42.198Z,4.051
2023-04-08T06:48:42.733Z,4.054
2023-04-08T06:49:42.960Z,4.019
2023-04-08T06:50:42.101Z,3.987
2023-04-08T06:51:42.294Z,3.939
2023-04-08T06:52:42.494Z,3.926
2023-04-08T06:53:42.657Z,3.896
2023-04-08T06:54:42.792Z,3.878
2023-04-08T06:55:43.059Z,3.896
2023-04-08T06:57:42.357Z,3.878
2023-04-08T06:58:42.657Z,3.910
2023-04-08T06:59:42.853Z,3.936
2023-04-08T07:00:43.016Z,3.944
2023-04-08T07:02:42.219Z,3.990
2023-04-08T07:03:43.019Z,3.968
2023-04-08T07:04:43.145Z,4.033
2023-04-08T07:05:42.640Z,4.001
2023-04-08T07:06:42.744Z,4.025
2023-04-08T07:07:43.054Z,4.035
2023-04-08T07:08:42.194Z,4.118
2023-04-08T07:09:42.334Z,4.051
2023-04-08T07:10:42.520Z,4.035
2023-04-08T07:11:42.712Z,4.035
2023-04-08T07:12:42.107Z,4.054
2023-04-08T07:13:42.234Z,4.083
2023-04-08T07:14:42.365Z,4.065
2023-04-08T07:15:42.593Z,4.083
2023-04-08T07:16:42.960Z,4.017
2023-04-08T07:17:42.797Z,4.081
2023-04-08T07:18:43.011Z,4.027
2023-04-08T07:19:43.118Z,4.043
2023-04-08T07:21:42.409Z,4.033
2023-04-08T07:22:42.659Z,3.974
2023-04-08T07:23:42.759Z,3.974
2023-04-08T07:24:42.907Z,4.059
2023-04-08T07:25:43.073Z,4.070
2023-04-08T07:26:42.179Z,4.137
2023-04-08T07:27:42.319Z,4.126
2023-04-08T07:28:42.476Z,4.198
2023-04-08T07:29:42.781Z,4.206
2023-04-08T07:30:42.972Z,4.233
2023-04-08T07:31:42.289Z,4.201
2023-04-08T07:32:42.632Z,4.220
2023-04-08T07:33:42.236Z,4.158
2023-04-08T07:34:42.321Z,4.171
2023-04-08T07:35:42.616Z,4.228
2023-04-08T07:36:43.054Z,4.284
2023-04-08T07:37:42.173Z,4.353
2023-04-08T07:38:42.488Z,4.294
2023-04-08T07:39:42.678Z,4.358
2023-04-08T07:40:42.881Z,4.452
2023-04-08T07:41:43.083Z,4.401
2023-04-08T07:42:42.326Z,4.396
2023-04-08T07:43:42.501Z,4.262
2023-04-08T07:44:42.813Z,4.278
2023-04-08T07:45:43.141Z,4.294
2023-04-08T07:46:42.573Z,4.324
2023-04-08T07:47:42.807Z,4.324
2023-04-08T07:51:07.652Z,4.324
2023-04-08T07:52:43.788Z,4.329
2023-04-08T07:53:44.013Z,4.406
2023-04-08T07:55:43.572Z,4.406
2023-04-08T07:56:43.214Z,4.313
2023-04-08T07:57:44.069Z,4.406
2023-04-08T07:59:43.704Z,4.385
2023-04-08T08:00:43.940Z,4.433
2023-04-08T08:01:43.249Z,4.463
2023-04-08T08:02:43.959Z,4.390
2023-04-08T08:03:44.143Z,4.460
2023-04-08T08:04:43.605Z,4.422
2023-04-08T08:07:43.729Z,4.479
2023-04-08T08:08:43.864Z,4.516
2023-04-08T08:09:44.042Z,4.487
2023-04-08T08:10:43.231Z,4.585
2023-04-08T08:11:43.326Z,4.655
2023-04-08T08:12:43.510Z,4.687
2023-04-08T08:13:43.652Z,4.732
2023-04-08T08:14:43.827Z,4.730
2023-04-08T08:15:44.065Z,4.743
2023-04-08T08:16:43.592Z,4.697
2023-04-08T08:17:45.535Z,4.748
2023-04-08T08:19:43.387Z,4.689
2023-04-08T08:20:43.540Z,4.679
2023-04-08T08:21:43.736Z,4.676
2023-04-08T08:22:54.439Z,4.652
2023-04-08T08:23:43.815Z,4.652
2023-04-08T08:24:43.947Z,4.636
2023-04-08T08:25:44.339Z,4.700
2023-04-08T08:26:43.532Z,4.695
2023-04-08T08:27:43.739Z,4.751
2023-04-08T08:28:43.920Z,4.665
2023-04-08T08:29:44.145Z,4.764
2023-04-08T08:30:43.296Z,4.724
2023-04-08T08:31:43.623Z,4.788
2023-04-08T08:32:43.926Z,4.772
2023-04-08T08:34:43.452Z,4.810
2023-04-08T08:35:43.586Z,4.770
2023-04-08T08:36:43.995Z,4.778
2023-04-08T08:37:43.125Z,4.871
2023-04-08T08:38:43.284Z,4.892
2023-04-08T08:39:43.449Z,4.946
2023-04-08T08:40:43.624Z,4.935
2023-04-08T08:41:43.792Z,4.954
2023-04-08T08:42:43.985Z,4.999
2023-04-08T08:44:43.227Z,4.908
2023-04-08T08:45:43.416Z,4.882
2023-04-08T08:46:43.577Z,4.903
2023-04-08T08:47:43.313Z,4.842
2023-04-08T08:48:43.730Z,4.868
2023-04-08T08:49:43.910Z,4.892
2023-04-08T08:50:44.101Z,4.949
2023-04-08T08:51:43.274Z,4.943
2023-04-08T08:52:43.451Z,5.087
2023-04-08T08:53:43.628Z,5.101
2023-04-08T08:54:44.047Z,5.157
2023-04-08T08:56:05.317Z,5.245
2023-04-08T08:57:49.808Z,5.232
2023-04-08T08:58:50.057Z,5.309
2023-04-08T08:59:49.175Z,5.272
2023-04-08T09:00:49.348Z,5.314
2023-04-08T09:01:49.797Z,5.272
2023-04-08T09:03:49.701Z,5.304
2023-04-08T09:05:49.673Z,5.309
2023-04-08T09:06:50.187Z,5.229
2023-04-08T09:08:49.679Z,5.338
2023-04-08T09:09:49.868Z,5.200
2023-04-08T09:10:50.060Z,5.197
2023-04-08T09:11:49.135Z,5.285
2023-04-08T09:12:49.295Z,5.173
2023-04-08T09:13:49.688Z,5.242
2023-04-08T09:14:49.218Z,5.197
2023-04-08T09:15:49.428Z,5.232
2023-04-08T09:16:50.105Z,5.208
2023-04-08T09:17:49.579Z,5.146
2023-04-08T09:18:50.038Z,5.111
2023-04-08T09:19:49.168Z,5.117
2023-04-08T09:20:49.260Z,5.170
2023-04-08T09:21:49.490Z,5.127
2023-04-08T09:22:49.730Z,5.173
2023-04-08T09:23:50.156Z,5.175
2023-04-08T09:24:50.076Z,5.218
2023-04-08T09:25:49.217Z,5.320
2023-04-08T09:26:49.351Z,5.320
2023-04-08T09:27:49.520Z,5.357
2023-04-08T09:28:49.757Z,5.285
2023-04-08T09:29:49.760Z,5.306
2023-04-08T09:30:49.957Z,5.416
2023-04-08T09:31:50.199Z,5.499
2023-04-08T09:33:49.301Z,5.525
2023-04-08T09:34:49.633Z,5.651
2023-04-08T09:35:49.548Z,5.627
2023-04-08T09:36:49.969Z,5.629
2023-04-08T09:38:49.418Z,5.651
2023-04-08T09:39:49.598Z,5.752
2023-04-08T09:40:49.762Z,5.699
2023-04-08T09:41:49.968Z,5.672
2023-04-08T09:42:50.095Z,5.653
2023-04-08T09:43:49.640Z,5.715
2023-04-08T09:46:49.782Z,5.699
2023-04-08T09:47:50.132Z,5.822
2023-04-08T09:48:49.499Z,5.750
2023-04-08T09:49:49.691Z,5.734
2023-04-08T09:50:49.913Z,5.710
2023-04-08T09:51:50.035Z,5.830
2023-04-08T09:52:49.215Z,5.915
2023-04-08T09:53:49.500Z,5.931
2023-04-08T09:54:49.934Z,6.126
2023-04-08T09:55:49.289Z,6.097
2023-04-08T09:56:49.421Z,6.169
2023-04-08T09:57:49.604Z,6.321
2023-04-08T09:58:49.721Z,6.361
2023-04-08T09:59:49.284Z,6.286
2023-04-08T10:00:49.440Z,6.356
2023-04-08T10:01:50.137Z,6.372
2023-04-08T10:02:49.909Z,6.481
2023-04-08T10:03:50.434Z,6.484
2023-04-08T10:04:49.680Z,6.591
2023-04-08T10:09:49.200Z,6.412
2023-04-08T10:10:49.323Z,6.356
2023-04-08T10:11:49.487Z,6.305
2023-04-08T10:12:49.706Z,6.305
2023-04-08T10:13:50.041Z,6.193
2023-04-08T10:14:49.615Z,6.206
2023-04-08T10:15:49.842Z,6.417
2023-04-08T10:16:49.731Z,6.473
2023-04-08T10:17:50.079Z,6.374
2023-04-08T10:18:49.300Z,6.366
2023-04-08T10:19:49.522Z,6.409
2023-04-08T10:20:49.633Z,6.457
2023-04-08T10:21:49.792Z,6.372
2023-04-08T10:22:49.943Z,6.545
2023-04-08T10:23:50.185Z,6.585
2023-04-08T10:24:49.448Z,6.644
2023-04-08T10:25:49.671Z,6.682
2023-04-08T10:26:49.816Z,6.633
2023-04-08T10:27:49.988Z,6.623
2023-04-08T10:28:50.094Z,6.572
2023-04-08T10:29:49.276Z,6.545
2023-04-08T10:30:49.398Z,6.441
2023-04-08T10:31:49.731Z,6.465
2023-04-08T10:32:49.183Z,6.700
2023-04-08T10:33:49.664Z,6.754
2023-04-08T10:36:49.561Z,7.440
2023-04-08T10:37:49.753Z,7.913
2023-04-08T10:38:49.907Z,8.188
2023-04-08T10:39:49.380Z,8.529
2023-04-08T10:40:49.544Z,9.096
2023-04-08T10:41:49.914Z,9.363
2023-04-08T10:42:49.112Z,9.531
2023-04-08T10:43:49.343Z,9.630
2023-04-08T10:44:49.947Z,9.582
2023-04-08T10:45:50.152Z,10.014
2023-04-08T10:46:49.490Z,9.998
2023-04-08T10:47:49.998Z,9.934
2023-04-08T10:49:49.304Z,9.766
2023-04-08T10:50:49.481Z,9.128
2023-04-08T10:51:51.354Z,9.136
2023-04-08T10:52:49.524Z,9.029
2023-04-08T10:53:49.816Z,9.029
2023-04-08T10:54:49.224Z,8.626
2023-04-08T10:55:49.409Z,8.794
2023-04-08T10:56:49.630Z,9.031
2023-04-08T10:57:49.969Z,8.708
2023-04-08T10:58:49.113Z,8.951
2023-04-08T10:59:49.421Z,9.063
2023-04-08T11:00:49.697Z,9.037
2023-04-08T11:01:49.335Z,9.218
2023-04-08T11:02:50.254Z,9.477
2023-04-08T11:03:49.506Z,9.539
2023-04-08T11:04:49.866Z,9.085
2023-04-08T11:05:50.022Z,8.786
2023-04-08T11:06:49.289Z,8.529
2023-04-08T11:07:49.391Z,8.321
2023-04-08T11:08:49.498Z,8.500
2023-04-08T11:09:49.725Z,8.650
2023-04-08T11:10:49.904Z,8.738
2023-04-08T11:11:50.091Z,8.906
2023-04-08T11:12:49.259Z,8.767
2023-04-08T11:13:53.625Z,8.591
2023-04-08T11:14:49.615Z,8.471
2023-04-08T11:15:49.915Z,8.383
2023-04-08T11:16:49.256Z,8.690
2023-04-08T11:17:49.487Z,8.847
2023-04-08T11:18:49.945Z,8.812
2023-04-08T11:19:49.139Z,8.871
2023-04-08T11:20:49.321Z,9.053
2023-04-08T11:21:49.702Z,9.074
2023-04-08T11:22:49.966Z,8.997
2023-04-08T11:23:49.684Z,8.893
2023-04-08T11:27:49.868Z,9.672
2023-04-08T11:28:49.968Z,9.787
2023-04-08T11:29:49.155Z,9.750
2023-04-08T11:30:49.368Z,9.833
2023-04-08T11:31:49.839Z,10.182
2023-04-08T11:32:50.104Z,10.022
2023-04-08T11:33:49.731Z,9.734
2023-04-08T11:36:49.073Z,9.096
2023-04-08T11:37:49.196Z,9.136
2023-04-08T11:38:49.356Z,8.871
2023-04-08T11:39:49.545Z,8.989
2023-04-08T11:40:49.695Z,8.711
2023-04-08T11:41:49.887Z,8.668
2023-04-08T11:42:50.035Z,8.660
2023-04-08T11:44:49.594Z,8.647
2023-04-08T11:45:49.803Z,8.690
2023-04-08T11:46:50.213Z,8.647
2023-04-08T11:47:49.582Z,8.433
2023-04-08T11:48:50.035Z,8.607
2023-04-08T11:49:49.280Z,8.559
2023-04-08T11:50:49.521Z,8.540
2023-04-08T11:51:49.713Z,8.628
2023-04-08T11:52:49.868Z,8.511
2023-04-08T11:53:50.246Z,8.682
2023-04-08T11:55:49.611Z,8.521
2023-04-08T11:56:49.868Z,8.535
2023-04-08T11:57:50.052Z,8.756
2023-04-08T11:58:49.255Z,9.133
2023-04-08T11:59:49.409Z,9.453
2023-04-08T12:00:49.637Z,9.683
2023-04-08T12:01:49.894Z,9.667
2023-04-08T12:03:50.314Z,9.592
2023-04-08T12:04:49.226Z,9.758
2023-04-08T12:05:49.654Z,10.094
2023-04-08T12:06:49.867Z,10.110
2023-04-08T12:07:50.086Z,9.833
2023-04-08T12:08:49.304Z,9.825
2023-04-08T12:09:49.587Z,9.974
2023-04-08T12:10:49.815Z,9.656
2023-04-08T12:12:49.800Z,9.290
2023-04-08T12:13:50.229Z,9.146
2023-04-08T12:14:49.727Z,9.077
2023-04-08T12:15:50.000Z,8.845
2023-04-08T12:17:49.694Z,8.930
2023-04-08T12:18:49.245Z,8.804
2023-04-08T12:19:49.493Z,8.914
2023-04-08T12:20:49.693Z,8.967
2023-04-08T12:21:49.896Z,8.743
2023-04-08T12:22:50.107Z,8.604
2023-04-08T12:23:49.420Z,8.671
2023-04-08T12:24:50.013Z,8.620
2023-04-08T12:27:49.575Z,8.572
2023-04-08T12:28:49.838Z,8.401
2023-04-08T12:29:50.000Z,8.308
2023-04-08T12:30:49.208Z,8.484
2023-04-08T12:31:49.598Z,8.433
2023-04-08T12:32:49.956Z,8.532
2023-04-08T12:34:49.951Z,8.447
2023-04-08T12:35:50.239Z,8.455
2023-04-08T12:36:49.556Z,8.585
2023-04-08T12:37:49.721Z,8.567
2023-04-08T12:38:50.050Z,8.532
2023-04-08T12:39:49.716Z,8.545
2023-04-08T12:40:50.313Z,8.519
2023-04-08T12:41:49.587Z,8.471
2023-04-08T12:42:49.793Z,8.519
2023-04-08T12:43:50.003Z,8.569
2023-04-08T12:44:49.151Z,8.561
2023-04-08T12:45:49.367Z,8.508
2023-04-08T12:46:49.721Z,8.572
2023-04-08T12:47:49.432Z,8.647
2023-04-08T12:48:59.911Z,8.647
2023-04-08T12:49:54.928Z,8.575
2023-04-08T12:50:50.030Z,8.580
2023-04-08T12:51:49.236Z,8.674
2023-04-08T12:52:49.385Z,8.853
2023-04-08T12:53:49.634Z,8.943
2023-04-08T12:54:49.789Z,9.061
2023-04-08T12:55:50.015Z,9.133
2023-04-08T12:56:49.212Z,9.253
2023-04-08T12:57:49.424Z,9.357
2023-04-08T12:58:49.733Z,9.520
2023-04-08T13:00:49.697Z,9.800
2023-04-08T13:01:50.418Z,9.843
2023-04-08T13:02:49.332Z,9.704
2023-04-08T13:03:50.187Z,10.161
2023-04-08T13:04:49.795Z,10.174
2023-04-08T13:05:49.959Z,10.201
2023-04-08T13:07:49.419Z,9.971
2023-04-08T13:08:49.820Z,10.030
2023-04-08T13:10:49.653Z,10.412
2023-04-08T13:11:49.756Z,10.404
2023-04-08T13:12:49.959Z,10.508
2023-04-08T13:14:49.186Z,10.823
2023-04-08T13:15:49.533Z,11.248
2023-04-08T13:16:50.058Z,11.021
2023-04-08T13:17:49.504Z,10.933
2023-04-08T13:20:49.834Z,10.682
2023-04-08T13:21:50.049Z,10.869
2023-04-08T13:22:49.284Z,10.634
2023-04-08T13:23:49.558Z,10.882
2023-04-08T13:24:49.780Z,10.949
2023-04-08T13:25:49.964Z,10.815
2023-04-08T13:26:50.157Z,10.997
2023-04-08T13:27:49.352Z,10.564
2023-04-08T13:28:59.907Z,10.628
2023-04-08T13:29:49.696Z,10.551
2023-04-08T13:30:49.843Z,10.647
2023-04-08T13:31:50.145Z,11.189
2023-04-08T13:32:49.709Z,11.405
2023-04-08T13:35:49.610Z,11.595
2023-04-08T13:36:50.151Z,11.379
2023-04-08T13:37:49.328Z,11.638
2023-04-08T13:38:49.641Z,11.822
2023-04-08T13:40:49.664Z,11.563
2023-04-08T13:41:50.012Z,11.841
2023-04-08T13:42:49.239Z,11.563
2023-04-08T13:43:49.388Z,11.037
2023-04-08T13:44:49.528Z,11.258
2023-04-08T13:45:49.849Z,11.002
2023-04-08T13:46:49.365Z,11.045
2023-04-08T13:47:49.617Z,11.040
2023-04-08T13:48:50.359Z,11.189
2023-04-08T13:49:49.996Z,11.416
2023-04-08T13:51:49.475Z,10.783
2023-04-08T13:52:49.663Z,11.112
2023-04-08T13:53:49.870Z,10.978
2023-04-08T13:54:49.988Z,11.208
2023-04-08T13:56:49.368Z,10.813
2023-04-08T13:57:49.583Z,11.013
2023-04-08T13:58:55.317Z,11.229
2023-04-08T13:59:49.509Z,11.301
2023-04-08T14:00:49.786Z,10.858
2023-04-08T14:01:49.195Z,11.072
2023-04-08T14:02:49.912Z,11.339
2023-04-08T14:06:49.439Z,13.705
2023-04-08T14:07:49.659Z,13.854
2023-04-08T14:08:50.250Z,13.256
2023-04-08T14:09:49.156Z,12.831
2023-04-08T14:10:49.377Z,12.708
2023-04-08T14:11:49.520Z,12.118
2023-04-08T14:12:49.749Z,12.399
2023-04-08T14:13:50.037Z,12.244
2023-04-08T14:14:49.280Z,12.228
2023-04-08T14:15:49.562Z,11.958
2023-04-08T14:16:49.851Z,11.966
2023-04-08T14:17:49.388Z,12.407
2023-04-08T14:18:49.687Z,12.201
2023-04-08T14:19:49.545Z,11.782
2023-04-08T14:20:49.781Z,11.301
2023-04-08T14:21:50.104Z,11.483
2023-04-08T14:22:49.297Z,11.280
2023-04-08T14:23:49.499Z,11.331
2023-04-08T14:24:49.637Z,11.477
2023-04-08T14:25:49.912Z,11.445
2023-04-08T14:26:50.115Z,11.189
2023-04-08T14:27:57.716Z,11.264
2023-04-08T14:28:49.588Z,11.291
2023-04-08T14:29:49.944Z,11.373